createdAt,value
2023-02-14T00:01:12.354Z,101819.31
2023-02-14T00:06:15.980Z,101813.59
2023-02-14T00:11:18.928Z,101827.69
2023-02-14T00:16:21.939Z,101816.22
2023-02-14T00:21:24.939Z,101806.28
2023-02-14T00:26:28.431Z,101797.91
2023-02-14T00:31:31.661Z,101799.22
2023-02-14T00:36:35.846Z,101819.81
2023-02-14T00:41:40.164Z,101820.00
2023-02-14T00:46:44.302Z,101819.34
2023-02-14T00:51:47.293Z,101820.41
2023-02-14T00:56:50.299Z,101822.19
2023-02-14T01:01:53.326Z,101815.88
2023-02-14T01:06:56.305Z,101803.78
2023-02-14T01:11:59.073Z,101799.59
2023-02-14T01:17:02.043Z,101793.94
2023-02-14T01:22:05.055Z,101798.44
2023-02-14T01:27:07.809Z,101787.16
2023-02-14T01:32:10.861Z,101784.56
2023-02-14T01:37:14.447Z,101781.84
2023-02-14T01:42:17.458Z,101782.91
2023-02-14T01:47:20.346Z,101801.72
2023-02-14T01:52:41.479Z,101794.50
2023-02-14T01:57:54.647Z,101786.66
2023-02-14T02:03:00.095Z,101800.94
2023-02-14T02:08:03.401Z,101789.22
2023-02-14T02:13:09.505Z,101776.75
2023-02-14T02:18:46.351Z,101773.31
2023-02-14T02:24:48.744Z,101774.09
2023-02-14T02:30:12.741Z,101769.47
2023-02-14T02:35:46.123Z,101775.34
2023-02-14T02:41:08.708Z,101771.81
2023-02-14T02:46:48.417Z,101762.47
2023-02-14T02:52:15.701Z,101755.22
2023-02-14T02:57:28.404Z,101769.38
2023-02-14T03:02:58.547Z,101763.13
2023-02-14T03:08:01.535Z,101756.06
2023-02-14T03:13:32.115Z,101771.25
2023-02-14T03:19:13.060Z,101762.50
2023-02-14T03:24:52.561Z,101767.03
2023-02-14T03:30:13.544Z,101765.03
2023-02-14T03:35:47.305Z,101758.84
2023-02-14T03:40:58.936Z,101765.34
2023-02-14T03:46:14.928Z,101765.91
2023-02-14T03:51:21.288Z,101771.56
2023-02-14T03:56:45.623Z,101773.03
2023-02-14T04:02:15.562Z,101768.50
2023-02-14T04:07:23.144Z,101761.09
2023-02-14T04:12:37.196Z,101774.69
2023-02-14T04:17:59.448Z,101776.13
2023-02-14T04:23:03.666Z,101773.97
2023-02-14T04:28:06.516Z,101764.00
2023-02-14T04:33:10.727Z,101772.91
2023-02-14T04:38:13.825Z,101782.69
2023-02-14T04:43:16.960Z,101777.00
2023-02-14T04:48:19.899Z,101768.75
2023-02-14T04:53:23.316Z,101767.19
2023-02-14T04:58:26.395Z,101758.81
2023-02-14T05:03:29.174Z,101768.53
2023-02-14T05:08:32.121Z,101762.78
2023-02-14T05:13:34.903Z,101770.75
2023-02-14T05:18:37.940Z,101774.34
2023-02-14T05:23:41.390Z,101772.72
2023-02-14T05:28:44.463Z,101774.69
2023-02-14T05:33:47.368Z,101777.59
2023-02-14T05:38:50.402Z,101783.75
2023-02-14T05:43:53.485Z,101780.41
2023-02-14T05:48:56.617Z,101775.38
2023-02-14T05:54:01.159Z,101775.47
2023-02-14T05:59:04.570Z,101783.28
2023-02-14T06:04:07.646Z,101793.69
2023-02-14T06:09:10.679Z,101785.16
2023-02-14T06:14:13.621Z,101792.84
2023-02-14T06:19:16.451Z,101800.22
2023-02-14T06:24:19.250Z,101818.09
2023-02-14T06:29:22.917Z,101828.97
2023-02-14T06:34:25.728Z,101828.72
2023-02-14T06:39:28.512Z,101838.56
2023-02-14T06:44:31.700Z,101850.03
2023-02-14T06:49:34.922Z,101848.94
2023-02-14T06:54:37.878Z,101851.28
2023-02-14T06:59:40.771Z,101854.38
2023-02-14T07:04:43.528Z,101859.09
2023-02-14T07:09:46.554Z,101856.66
2023-02-14T07:14:49.525Z,101860.03
2023-02-14T07:19:52.703Z,101856.25
2023-02-14T07:24:56.049Z,101862.75
2023-02-14T07:29:59.190Z,101858.03
2023-02-14T07:35:02.127Z,101861.53
2023-02-14T07:40:14.324Z,101858.16
2023-02-14T07:45:22.193Z,101858.94
2023-02-14T07:50:25.369Z,101858.63
2023-02-14T07:55:28.378Z,101850.31
2023-02-14T08:00:31.962Z,101847.56
2023-02-14T08:05:36.090Z,101843.69
2023-02-14T08:10:39.021Z,101839.50
2023-02-14T08:16:00.227Z,101846.94
2023-02-14T08:21:04.782Z,101843.00
2023-02-14T08:26:07.947Z,101838.44
2023-02-14T08:31:11.745Z,101847.53
2023-02-14T08:36:14.882Z,101842.38
2023-02-14T08:41:18.875Z,101848.00
2023-02-14T08:46:21.885Z,101851.28
2023-02-14T08:51:26.096Z,101850.56
2023-02-14T08:56:29.158Z,101843.50
2023-02-14T09:01:32.264Z,101847.00
2023-02-14T09:06:39.210Z,101844.00
2023-02-14T09:11:42.232Z,101841.75
2023-02-14T09:16:45.229Z,101842.09
2023-02-14T09:21:48.272Z,101844.75
2023-02-14T09:26:52.074Z,101842.56
2023-02-14T09:31:57.222Z,101843.81
2023-02-14T09:37:00.209Z,101850.09
2023-02-14T09:42:15.074Z,101850.34
2023-02-14T09:47:34.169Z,101841.63
2023-02-14T09:52:37.125Z,101841.75
2023-02-14T09:58:17.676Z,101845.75
2023-02-14T10:03:35.277Z,101841.97
2023-02-14T10:08:44.129Z,101833.09
2023-02-14T10:14:12.847Z,101836.44
2023-02-14T10:19:26.263Z,101835.34
2023-02-14T10:24:40.367Z,101833.25
2023-02-14T10:29:43.485Z,101819.25
2023-02-14T10:34:51.787Z,101817.53
2023-02-14T10:40:26.815Z,101818.94
2023-02-14T10:46:18.306Z,101811.81
2023-02-14T10:51:44.692Z,101803.91
2023-02-14T10:57:01.119Z,101807.97
2023-02-14T11:02:06.172Z,101782.63
2023-02-14T11:07:19.687Z,101772.00
2023-02-14T11:12:39.708Z,101781.47
2023-02-14T11:17:43.267Z,101773.63
2023-02-14T11:22:46.636Z,101777.66
2023-02-14T11:28:16.049Z,101786.63
2023-02-14T11:33:37.995Z,101770.69
2023-02-14T11:38:44.017Z,101788.44
2023-02-14T11:43:52.254Z,101772.41
2023-02-14T11:49:00.320Z,101767.75
2023-02-14T11:54:09.961Z,101766.72
2023-02-14T11:59:26.735Z,101768.63
2023-02-14T12:04:46.611Z,101767.88
2023-02-14T12:10:31.953Z,101767.44
2023-02-14T12:15:44.678Z,101777.16
2023-02-14T12:20:53.446Z,101775.88
2023-02-14T12:26:10.850Z,101758.25
2023-02-14T12:31:14.774Z,101747.53
2023-02-14T12:36:41.126Z,101756.97
2023-02-14T12:42:04.865Z,101752.88
2023-02-14T12:47:46.734Z,101746.81
2023-02-14T12:52:55.585Z,101737.31
2023-02-14T12:58:24.621Z,101725.97
2023-02-14T13:03:57.705Z,101727.56
2023-02-14T13:09:25.307Z,101729.09
2023-02-14T13:15:03.582Z,101721.75
2023-02-14T13:20:40.361Z,101725.84
2023-02-14T13:25:59.565Z,101722.22
2023-02-14T13:31:03.759Z,101730.06
2023-02-14T13:36:11.066Z,101727.50
2023-02-14T13:41:16.503Z,101715.44
2023-02-14T13:46:35.203Z,101714.88
2023-02-14T13:51:54.312Z,101713.63
2023-02-14T13:57:09.376Z,101719.84
2023-02-14T14:02:43.352Z,101715.97
2023-02-14T14:07:46.824Z,101721.97
2023-02-14T14:12:52.093Z,101713.81
2023-02-14T14:18:13.372Z,101719.72
2023-02-14T14:23:37.242Z,101716.09
2023-02-14T14:28:40.235Z,101706.13
2023-02-14T14:33:43.242Z,101715.06
2023-02-14T14:38:51.078Z,101714.28
2023-02-14T14:43:55.300Z,101709.00
2023-02-14T14:48:58.859Z,101699.63
2023-02-14T14:54:13.817Z,101715.13
2023-02-14T14:59:25.496Z,101707.72
2023-02-14T15:04:35.337Z,101702.16
2023-02-14T15:09:40.148Z,101717.97
2023-02-14T15:14:51.339Z,101710.22
2023-02-14T15:20:03.948Z,101713.22
2023-02-14T15:25:35.943Z,101712.09
2023-02-14T15:30:40.858Z,101713.81
2023-02-14T15:35:44.106Z,101717.22
2023-02-14T15:40:47.112Z,101710.97
2023-02-14T15:45:56.573Z,101711.59
2023-02-14T15:51:02.369Z,101721.00
2023-02-14T15:56:29.405Z,101723.75
2023-02-14T16:01:35.916Z,101727.81
2023-02-14T16:06:44.834Z,101728.03
2023-02-14T16:11:48.741Z,101743.50
2023-02-14T16:17:00.932Z,101747.16
2023-02-14T16:22:04.964Z,101751.78
2023-02-14T16:27:08.898Z,101761.53
2023-02-14T16:32:24.637Z,101762.63
2023-02-14T16:37:33.426Z,101751.31
2023-02-14T16:42:38.839Z,101762.47
2023-02-14T16:47:41.745Z,101761.53
2023-02-14T16:52:47.716Z,101769.38
2023-02-14T16:57:51.900Z,101770.66
2023-02-14T17:03:06.377Z,101781.28
2023-02-14T17:08:13.279Z,101779.25
2023-02-14T17:13:24.063Z,101780.25
2023-02-14T17:18:28.128Z,101793.88
2023-02-14T17:23:31.321Z,101795.28
2023-02-14T17:28:34.373Z,101787.19
2023-02-14T17:33:37.499Z,101795.06
2023-02-14T17:38:43.496Z,101789.28
2023-02-14T17:43:46.958Z,101801.09
2023-02-14T17:48:50.203Z,101793.25
2023-02-14T17:53:53.036Z,101788.41
2023-02-14T17:58:56.402Z,101789.91
2023-02-14T18:03:59.373Z,101779.63
2023-02-14T18:09:08.459Z,101775.41
2023-02-14T18:14:26.020Z,101771.34
2023-02-14T18:19:29.655Z,101768.25
2023-02-14T18:24:35.838Z,101773.59
2023-02-14T18:29:39.420Z,101769.03
2023-02-14T18:34:42.496Z,101772.69
2023-02-14T18:39:45.844Z,101777.94
2023-02-14T18:44:48.954Z,101777.44
2023-02-14T18:49:54.706Z,101772.38
2023-02-14T18:54:59.452Z,101777.81
2023-02-14T19:00:06.932Z,101773.63
2023-02-14T19:05:10.882Z,101780.13
2023-02-14T19:10:14.015Z,101777.75
2023-02-14T19:15:19.144Z,101774.47
2023-02-14T19:20:22.396Z,101776.53
2023-02-14T19:25:26.642Z,101780.25
2023-02-14T19:30:29.890Z,101775.41
2023-02-14T19:35:33.020Z,101780.84
2023-02-14T19:40:35.847Z,101774.66
2023-02-14T19:45:39.040Z,101788.66
2023-02-14T19:50:42.038Z,101795.13
2023-02-14T19:55:46.306Z,101792.84
2023-02-14T20:01:01.989Z,101792.59
2023-02-14T20:06:05.441Z,101801.69
2023-02-14T20:11:46.624Z,101799.84
2023-02-14T20:16:50.990Z,101793.66
2023-02-14T20:21:55.389Z,101788.41
2023-02-14T20:27:00.611Z,101791.47
2023-02-14T20:32:05.026Z,101796.00
2023-02-14T20:37:08.093Z,101796.09
2023-02-14T20:42:11.324Z,101800.69
2023-02-14T20:47:14.237Z,101801.03
2023-02-14T20:52:18.809Z,101793.53
2023-02-14T20:57:21.643Z,101795.59
2023-02-14T21:02:24.820Z,101798.81
2023-02-14T21:07:30.824Z,101789.75
2023-02-14T21:12:33.662Z,101786.66
2023-02-14T21:17:37.410Z,101792.25
2023-02-14T21:22:40.921Z,101790.78
2023-02-14T21:27:44.005Z,101790.94
2023-02-14T21:32:47.010Z,101801.44
2023-02-14T21:37:50.067Z,101793.69
2023-02-14T21:42:53.077Z,101803.19
2023-02-14T21:48:14.242Z,101813.69
2023-02-14T21:53:17.276Z,101812.94
2023-02-14T21:58:20.100Z,101814.53
2023-02-14T22:03:23.401Z,101811.88
2023-02-14T22:08:26.401Z,101818.91
2023-02-14T22:13:29.196Z,101808.69
2023-02-14T22:18:32.806Z,101814.19
2023-02-14T22:23:36.619Z,101824.13
2023-02-14T22:28:41.083Z,101819.25
2023-02-14T22:33:44.953Z,101823.88
2023-02-14T22:38:48.013Z,101821.50
2023-02-14T22:43:53.134Z,101833.84
2023-02-14T22:48:57.644Z,101820.25
2023-02-14T22:54:12.411Z,101823.13
2023-02-14T22:59:21.484Z,101822.22
2023-02-14T23:04:29.489Z,101829.19
2023-02-14T23:09:32.408Z,101822.22
2023-02-14T23:15:10.988Z,101817.91
2023-02-14T23:20:32.351Z,101818.94
2023-02-14T23:25:35.233Z,101822.59
2023-02-14T23:30:38.135Z,101817.66
2023-02-14T23:35:41.146Z,101811.78
2023-02-14T23:41:02.651Z,101803.41
2023-02-14T23:46:05.760Z,101809.56
2023-02-14T23:51:08.686Z,101805.44
2023-02-14T23:56:11.628Z,101809.88
